createdAt,value
2019-05-16T00:00:58.814Z,2.77
2019-05-16T00:03:28.010Z,2.97
2019-05-16T00:05:58.266Z,3.23
2019-05-16T00:08:25.266Z,3.17
2019-05-16T00:10:54.614Z,3.23
2019-05-16T00:13:22.212Z,2.93
2019-05-16T00:15:49.889Z,3.07
2019-05-16T00:18:17.912Z,3.33
2019-05-16T00:20:45.666Z,3.73
2019-05-16T00:23:13.295Z,3.23
2019-05-16T00:25:40.916Z,3.70
2019-05-16T00:28:08.989Z,3.67
2019-05-16T00:30:38.963Z,3.50
2019-05-16T00:33:08.321Z,3.30
2019-05-16T00:35:35.616Z,3.10
2019-05-16T00:38:03.458Z,3.67
2019-05-16T00:40:31.181Z,3.77
2019-05-16T00:42:59.119Z,3.47
2019-05-16T00:45:29.182Z,3.47
2019-05-16T00:47:58.306Z,3.13
2019-05-16T00:50:25.687Z,3.30
2019-05-16T00:53:01.423Z,3.73
2019-05-16T00:55:29.103Z,2.90
2019-05-16T00:57:58.361Z,3.50
2019-05-16T01:00:41.062Z,3.43
2019-05-16T01:03:08.692Z,3.37
2019-05-16T01:05:38.766Z,3.63
2019-05-16T01:08:07.745Z,3.50
2019-05-16T01:10:35.239Z,3.03
2019-05-16T01:13:02.887Z,3.30
2019-05-16T01:15:30.638Z,3.10
2019-05-16T01:17:58.836Z,3.10
2019-05-16T01:20:27.923Z,3.20
2019-05-16T01:22:55.589Z,2.87
2019-05-16T01:25:23.195Z,3.53
2019-05-16T01:27:50.804Z,3.50
2019-05-16T01:30:18.824Z,3.40
2019-05-16T01:32:48.961Z,3.70
2019-05-16T01:35:15.915Z,3.40
2019-05-16T01:37:43.515Z,3.40
2019-05-16T01:40:11.748Z,3.43
2019-05-16T01:42:39.370Z,2.97
2019-05-16T01:45:08.271Z,3.07
2019-05-16T01:47:36.016Z,2.93
2019-05-16T01:50:04.119Z,3.13
2019-05-16T01:52:31.726Z,3.67
2019-05-16T01:54:59.405Z,3.60
2019-05-16T01:57:28.194Z,3.30
2019-05-16T01:59:55.982Z,4.07
2019-05-16T02:02:23.616Z,2.97
2019-05-16T02:04:51.249Z,3.73
2019-05-16T02:07:18.980Z,3.60
2019-05-16T02:09:47.677Z,3.60
2019-05-16T02:12:15.449Z,3.23
2019-05-16T02:14:43.091Z,3.27
2019-05-16T02:17:11.275Z,3.60
2019-05-16T02:19:39.102Z,3.83
2019-05-16T02:22:08.755Z,3.33
2019-05-16T02:24:38.408Z,3.30
2019-05-16T02:27:05.764Z,3.20
2019-05-16T02:29:33.403Z,3.37
2019-05-16T02:32:01.990Z,3.37
2019-05-16T02:34:30.763Z,2.87
2019-05-16T02:37:18.317Z,3.00
2019-05-16T02:39:30.550Z,3.27
2019-05-16T02:42:00.802Z,3.20
2019-05-16T02:44:26.940Z,3.40
2019-05-16T02:46:54.552Z,3.37
2019-05-16T02:49:22.188Z,3.77
2019-05-16T02:51:51.172Z,3.50
2019-05-16T02:54:21.794Z,3.50
2019-05-16T02:56:50.645Z,2.97
2019-05-16T02:59:20.383Z,2.70
2019-05-16T03:01:47.283Z,3.27
2019-05-16T03:04:14.915Z,3.00
2019-05-16T03:06:42.821Z,3.03
2019-05-16T03:09:11.580Z,2.67
2019-05-16T03:11:41.902Z,2.97
2019-05-16T03:14:11.223Z,3.50
2019-05-16T03:16:41.508Z,3.00
2019-05-16T03:19:11.305Z,3.13
2019-05-16T03:21:41.506Z,2.97
2019-05-16T03:24:11.236Z,3.00
2019-05-16T03:26:40.906Z,3.70
2019-05-16T03:29:11.081Z,2.80
2019-05-16T03:31:43.613Z,2.80
2019-05-16T03:34:08.063Z,3.00
2019-05-16T03:36:36.408Z,2.77
2019-05-16T03:39:05.093Z,2.70
2019-05-16T03:41:33.847Z,2.67
2019-05-16T03:44:01.598Z,2.70
2019-05-16T03:46:30.915Z,2.80
2019-05-16T03:49:02.051Z,2.63
2019-05-16T03:51:30.706Z,2.50
2019-05-16T03:53:57.570Z,2.70
2019-05-16T03:56:25.218Z,2.67
2019-05-16T03:58:52.839Z,2.87
2019-05-16T04:01:21.009Z,2.40
2019-05-16T04:03:51.108Z,2.70
2019-05-16T04:06:21.867Z,2.50
2019-05-16T04:08:50.979Z,2.83
2019-05-16T04:11:22.183Z,3.00
2019-05-16T04:13:46.916Z,2.33
2019-05-16T04:16:14.629Z,2.47
2019-05-16T04:18:42.587Z,2.30
2019-05-16T04:21:11.825Z,2.60
2019-05-16T04:23:41.920Z,2.60
2019-05-16T04:26:11.306Z,3.10
2019-05-16T04:28:41.303Z,2.80
2019-05-16T04:31:10.684Z,3.80
2019-05-16T04:33:37.524Z,8.70
2019-05-16T04:36:05.189Z,8.13
2019-05-16T04:38:40.814Z,4.33
2019-05-16T04:41:02.316Z,2.60
2019-05-16T04:43:31.604Z,3.07
2019-05-16T04:46:01.456Z,3.63
2019-05-16T04:48:31.093Z,2.37
2019-05-16T04:51:01.045Z,2.10
2019-05-16T04:53:31.564Z,2.10
2019-05-16T04:56:01.426Z,2.20
2019-05-16T04:58:31.404Z,2.30
2019-05-16T05:00:57.597Z,1.80
2019-05-16T05:03:25.242Z,1.83
2019-05-16T05:05:52.860Z,2.07
2019-05-16T05:08:21.912Z,2.37
2019-05-16T05:10:51.304Z,2.47
2019-05-16T05:13:22.232Z,2.17
2019-05-16T05:15:50.955Z,2.57
2019-05-16T05:18:21.028Z,2.70
2019-05-16T05:23:22.614Z,2.17
2019-05-16T05:25:51.326Z,2.17
2019-05-16T05:28:20.965Z,1.90
2019-05-16T05:30:50.286Z,2.17
2019-05-16T05:33:20.620Z,2.30
2019-05-16T05:35:50.346Z,2.33
2019-05-16T05:38:17.373Z,2.20
2019-05-16T05:40:44.984Z,2.20
2019-05-16T05:43:12.632Z,2.87
2019-05-16T05:45:40.286Z,2.27
2019-05-16T05:48:10.527Z,2.47
2019-05-16T05:50:37.389Z,2.30
2019-05-16T05:53:05.065Z,2.67
2019-05-16T05:55:32.703Z,2.50
2019-05-16T05:58:01.032Z,2.10
2019-05-16T06:00:30.359Z,2.50
2019-05-16T06:03:00.108Z,3.00
2019-05-16T06:05:34.388Z,2.83
2019-05-16T06:08:02.066Z,5.20
2019-05-16T06:10:30.418Z,3.40
2019-05-16T06:13:00.492Z,2.97
2019-05-16T06:15:27.619Z,5.07
2019-05-16T06:17:55.287Z,3.10
2019-05-16T06:20:22.933Z,3.40
2019-05-16T06:22:51.059Z,2.50
2019-05-16T06:25:22.776Z,2.60
2019-05-16T06:27:50.968Z,2.63
2019-05-16T06:30:20.631Z,2.70
2019-05-16T06:32:47.436Z,2.43
2019-05-16T06:35:15.123Z,2.97
2019-05-16T06:37:42.755Z,2.67
2019-05-16T06:40:10.978Z,2.60
2019-05-16T06:42:40.297Z,2.97
2019-05-16T06:45:10.355Z,2.20
2019-05-16T06:47:39.620Z,2.63
2019-05-16T06:50:07.499Z,2.30
2019-05-16T06:52:35.133Z,2.27
2019-05-16T06:55:03.168Z,1.97
2019-05-16T06:57:30.833Z,2.43
2019-05-16T07:00:00.469Z,2.30
2019-05-16T07:02:33.591Z,2.40
2019-05-16T07:04:57.437Z,2.30
2019-05-16T07:07:25.043Z,2.60
2019-05-16T07:10:00.031Z,2.63
2019-05-16T07:12:22.182Z,2.73
2019-05-16T07:14:50.516Z,2.40
2019-05-16T07:17:20.242Z,2.50
2019-05-16T07:19:50.232Z,2.40
2019-05-16T07:22:20.578Z,2.57
2019-05-16T07:24:50.315Z,2.13
2019-05-16T07:27:17.914Z,2.40
2019-05-16T07:29:45.514Z,2.47
2019-05-16T07:32:13.140Z,2.53
2019-05-16T07:34:40.835Z,2.40
2019-05-16T07:37:10.674Z,2.40
2019-05-16T07:39:39.314Z,2.17
2019-05-16T07:42:07.691Z,2.10
2019-05-16T07:44:35.337Z,2.23
2019-05-16T07:47:02.993Z,2.00
2019-05-16T07:49:30.635Z,2.43
2019-05-16T07:52:00.414Z,2.33
2019-05-16T07:54:34.525Z,2.50
2019-05-16T07:57:11.492Z,2.43
2019-05-16T07:59:30.047Z,1.97
2019-05-16T08:02:00.586Z,2.33
2019-05-16T08:04:30.352Z,2.30
2019-05-16T08:07:00.452Z,2.27
2019-05-16T08:09:27.242Z,2.60
2019-05-16T08:11:54.955Z,2.63
2019-05-16T08:14:22.686Z,2.30
2019-05-16T08:16:50.349Z,2.33
2019-05-16T08:19:20.004Z,2.43
2019-05-16T08:21:50.370Z,2.47
2019-05-16T08:24:17.077Z,2.40
2019-05-16T08:26:44.707Z,2.03
2019-05-16T08:29:13.368Z,2.27
2019-05-16T08:34:12.207Z,2.60
2019-05-16T08:36:41.103Z,2.30
2019-05-16T08:39:11.041Z,2.77
2019-05-16T08:41:42.126Z,2.40
2019-05-16T08:44:12.185Z,2.57
2019-05-16T08:46:41.654Z,2.57
2019-05-16T08:49:06.964Z,3.07
2019-05-16T08:50:10.938Z,2.47
2019-05-16T08:51:34.603Z,2.70
2019-05-16T08:54:02.227Z,2.90
2019-05-16T08:56:32.048Z,2.50
2019-05-16T08:59:02.714Z,2.67
2019-05-16T09:01:34.473Z,2.80
2019-05-16T09:04:01.515Z,2.63
2019-05-16T09:06:31.624Z,2.57
2019-05-16T09:08:59.615Z,2.60
2019-05-16T09:11:35.723Z,2.57
2019-05-16T09:13:57.300Z,2.87
2019-05-16T09:16:27.533Z,2.63
2019-05-16T09:18:57.433Z,2.90
2019-05-16T09:21:27.141Z,2.30
2019-05-16T09:23:53.992Z,2.70
2019-05-16T09:26:21.635Z,2.60
2019-05-16T09:28:49.283Z,2.60
2019-05-16T09:31:23.909Z,2.33
2019-05-16T09:33:47.374Z,2.20
2019-05-16T09:36:17.482Z,2.23
2019-05-16T09:38:48.126Z,2.20
2019-05-16T09:41:16.758Z,2.40
2019-05-16T09:43:43.728Z,2.67
2019-05-16T09:46:11.371Z,2.13
2019-05-16T09:48:39.048Z,2.10
2019-05-16T09:51:06.837Z,2.30
2019-05-16T09:53:36.469Z,2.37
2019-05-16T09:56:03.931Z,2.30
2019-05-16T09:58:31.618Z,2.20
2019-05-16T10:00:59.315Z,2.40
2019-05-16T10:03:27.291Z,2.53
2019-05-16T10:05:57.129Z,2.60
2019-05-16T10:08:26.787Z,2.10
2019-05-16T10:10:56.870Z,2.60
2019-05-16T10:13:23.997Z,2.40
2019-05-16T10:15:51.999Z,2.23
2019-05-16T10:18:19.722Z,1.93
2019-05-16T10:20:47.509Z,2.20
2019-05-16T10:23:18.138Z,2.77
2019-05-16T10:25:48.016Z,2.97
2019-05-16T10:28:17.317Z,2.50
2019-05-16T10:30:49.713Z,2.90
2019-05-16T10:33:18.795Z,2.73
2019-05-16T10:35:47.724Z,2.40
2019-05-16T10:38:14.080Z,2.70
2019-05-16T10:40:41.906Z,2.77
2019-05-16T10:43:09.726Z,2.60
2019-05-16T10:45:37.579Z,2.50
2019-05-16T10:48:05.415Z,2.77
2019-05-16T10:50:33.203Z,2.43
2019-05-16T10:53:22.685Z,2.95
2019-05-16T10:55:30.647Z,2.90
2019-05-16T10:57:58.617Z,2.62
2019-05-16T11:00:49.099Z,2.70
2019-05-16T11:02:58.759Z,2.95
2019-05-16T11:05:33.093Z,2.70
2019-05-16T11:07:57.348Z,3.02
2019-05-16T11:10:26.886Z,2.95
2019-05-16T11:12:58.556Z,3.47
2019-05-16T11:15:27.592Z,3.12
2019-05-16T11:17:54.152Z,3.10
2019-05-16T11:20:22.034Z,3.27
2019-05-16T11:22:49.784Z,3.62
2019-05-16T11:25:28.103Z,3.75
2019-05-16T11:27:47.068Z,3.60
2019-05-16T11:30:17.800Z,3.27
2019-05-16T11:32:46.814Z,3.50
2019-05-16T11:35:16.914Z,3.33
2019-05-16T11:37:43.682Z,3.45
2019-05-16T11:40:11.607Z,3.55
2019-05-16T11:42:39.242Z,3.42
2019-05-16T11:45:09.863Z,3.27
2019-05-16T11:47:39.681Z,3.85
2019-05-16T11:50:07.565Z,4.60
2019-05-16T11:52:35.171Z,3.70
2019-05-16T11:55:03.069Z,3.25
2019-05-16T11:57:30.667Z,3.70
2019-05-16T11:59:58.299Z,3.33
2019-05-16T12:02:27.896Z,3.80
2019-05-16T12:04:57.753Z,3.60
2019-05-16T12:07:32.348Z,3.03
2019-05-16T12:09:55.758Z,3.53
2019-05-16T12:12:23.474Z,3.67
2019-05-16T12:14:51.104Z,3.83
2019-05-16T12:17:18.699Z,3.97
2019-05-16T12:19:48.272Z,4.00
2019-05-16T12:22:18.325Z,4.20
2019-05-16T12:24:47.575Z,4.22
2019-05-16T12:27:16.776Z,4.65
2019-05-16T12:29:47.652Z,4.70
2019-05-16T12:32:13.613Z,4.58
2019-05-16T12:34:41.286Z,4.47
2019-05-16T12:37:08.861Z,4.78
2019-05-16T12:39:37.858Z,4.47
2019-05-16T12:42:08.334Z,4.10
2019-05-16T12:44:37.290Z,4.80
2019-05-16T12:47:04.587Z,4.72
2019-05-16T12:49:32.233Z,4.40
2019-05-16T12:51:59.845Z,4.05
2019-05-16T12:54:27.677Z,4.42
2019-05-16T12:56:58.035Z,4.20
2019-05-16T12:59:26.669Z,4.87
2019-05-16T13:01:54.241Z,4.67
2019-05-16T13:04:21.882Z,3.92
2019-05-16T13:06:49.571Z,4.80
2019-05-16T13:09:18.456Z,4.75
2019-05-16T13:11:47.226Z,5.05
2019-05-16T13:14:16.947Z,5.12
2019-05-16T13:16:47.093Z,4.80
2019-05-16T13:19:13.944Z,4.80
2019-05-16T13:21:41.614Z,5.20
2019-05-16T13:24:09.270Z,4.78
2019-05-16T13:26:37.432Z,4.90
2019-05-16T13:29:07.271Z,5.53
2019-05-16T13:31:37.563Z,5.47
2019-05-16T13:34:07.321Z,4.60
2019-05-16T13:36:34.625Z,4.63
2019-05-16T13:39:04.205Z,5.07
2019-05-16T13:41:34.272Z,4.53
2019-05-16T13:44:14.234Z,4.30
2019-05-16T13:46:30.768Z,4.40
2019-05-16T13:48:58.412Z,4.33
2019-05-16T13:51:26.678Z,4.00
2019-05-16T13:53:54.399Z,3.87
2019-05-16T13:56:22.045Z,3.70
2019-05-16T13:58:49.649Z,4.30
2019-05-16T14:01:17.416Z,4.03
2019-05-16T14:03:45.018Z,3.72
2019-05-16T14:06:12.687Z,3.60
2019-05-16T14:08:40.300Z,3.15
2019-05-16T14:11:10.127Z,3.65
2019-05-16T14:13:37.734Z,3.12
2019-05-16T14:16:07.281Z,3.50
2019-05-16T14:18:37.583Z,3.40
2019-05-16T14:21:06.737Z,3.27
2019-05-16T14:23:37.873Z,3.35
2019-05-16T14:26:03.603Z,3.60
2019-05-16T14:28:32.893Z,3.30
2019-05-16T14:31:00.537Z,3.22
2019-05-16T14:33:28.160Z,3.40
2019-05-16T14:35:56.385Z,3.40
2019-05-16T14:38:26.765Z,3.13
2019-05-16T14:40:53.689Z,3.27
2019-05-16T14:43:21.325Z,3.27
2019-05-16T14:45:50.812Z,3.50
2019-05-16T14:48:18.564Z,3.47
2019-05-16T14:50:47.006Z,3.40
2019-05-16T14:53:17.727Z,3.43
2019-05-16T14:55:47.307Z,3.70
2019-05-16T14:58:15.040Z,3.70
2019-05-16T15:00:42.672Z,3.97
2019-05-16T15:03:10.270Z,3.03
2019-05-16T15:05:42.540Z,3.73
2019-05-16T15:08:09.278Z,3.47
2019-05-16T15:10:37.611Z,3.50
2019-05-16T15:13:07.825Z,3.95
2019-05-16T15:15:37.384Z,4.23
2019-05-16T15:18:07.741Z,4.10
2019-05-16T15:20:33.932Z,3.83
2019-05-16T15:23:01.854Z,4.13
2019-05-16T15:25:29.457Z,4.50
2019-05-16T15:27:57.594Z,3.90
2019-05-16T15:30:26.593Z,4.57
2019-05-16T15:32:57.082Z,4.20
2019-05-16T15:35:30.072Z,4.50
2019-05-16T15:37:58.745Z,4.10
2019-05-16T15:40:23.635Z,4.20
2019-05-16T15:42:52.784Z,4.50
2019-05-16T15:45:35.786Z,4.17
2019-05-16T15:47:52.157Z,4.50
2019-05-16T15:50:20.039Z,4.13
2019-05-16T15:55:24.121Z,4.17
2019-05-16T15:57:53.076Z,4.73
2019-05-16T16:00:27.115Z,4.07
2019-05-16T16:02:54.985Z,4.37
2019-05-16T16:05:22.621Z,4.30
2019-05-16T16:07:50.286Z,4.13
2019-05-16T16:10:19.752Z,4.07
2019-05-16T16:12:47.812Z,3.97
2019-05-16T16:15:17.380Z,4.50
2019-05-16T16:17:47.000Z,4.30
2019-05-16T16:20:16.706Z,4.07
2019-05-16T16:22:43.819Z,4.13
2019-05-16T16:25:13.285Z,4.37
2019-05-16T16:27:40.958Z,4.23
2019-05-16T16:30:08.689Z,4.10
2019-05-16T16:32:37.991Z,4.67
2019-05-16T16:35:08.005Z,4.33
2019-05-16T16:37:37.622Z,4.67
2019-05-16T16:40:09.992Z,4.50
2019-05-16T16:42:37.334Z,4.63
2019-05-16T16:45:04.397Z,3.93
2019-05-16T16:47:33.927Z,4.43
2019-05-16T16:50:01.595Z,4.50
2019-05-16T16:55:16.995Z,4.60
2019-05-16T16:57:47.051Z,3.97
2019-05-16T17:00:17.309Z,4.40
2019-05-16T17:03:01.253Z,4.77
2019-05-16T17:05:13.823Z,4.27
2019-05-16T17:07:41.433Z,4.50
2019-05-16T17:10:09.287Z,3.97
2019-05-16T17:12:41.312Z,4.13
2019-05-16T17:15:08.538Z,4.70
2019-05-16T17:17:37.418Z,4.20
2019-05-16T17:20:07.583Z,4.37
2019-05-16T17:22:37.519Z,3.93
2019-05-16T17:25:07.197Z,4.00
2019-05-16T17:27:37.334Z,3.93
2019-05-16T17:30:07.228Z,3.90
2019-05-16T17:32:34.984Z,4.10
2019-05-16T17:35:02.649Z,4.50
2019-05-16T17:37:30.301Z,4.37
2019-05-16T17:39:57.950Z,4.50
2019-05-16T17:42:27.161Z,4.40
2019-05-16T17:44:56.609Z,3.77
2019-05-16T17:47:26.181Z,4.73
2019-05-16T17:49:53.761Z,5.60
2019-05-16T17:52:21.366Z,5.57
2019-05-16T17:54:49.044Z,5.80
2019-05-16T17:57:17.114Z,5.67
2019-05-16T17:59:44.872Z,5.33
2019-05-16T18:02:12.493Z,4.50
2019-05-16T18:04:41.155Z,4.47
2019-05-16T18:07:08.987Z,4.87
2019-05-16T18:12:17.690Z,5.13
2019-05-16T18:14:47.449Z,5.03
2019-05-16T18:17:14.741Z,4.77
2019-05-16T18:19:42.457Z,4.70
2019-05-16T18:22:10.095Z,5.10
2019-05-16T18:24:37.787Z,4.90
2019-05-16T18:27:06.638Z,4.43
2019-05-16T18:29:36.469Z,4.07
2019-05-16T18:32:04.032Z,4.83
2019-05-16T18:34:31.649Z,4.30
2019-05-16T18:36:59.316Z,4.70
2019-05-16T18:39:27.218Z,4.67
2019-05-16T18:41:56.545Z,4.57
2019-05-16T18:44:24.342Z,4.83
2019-05-16T18:47:04.052Z,4.97
2019-05-16T18:49:24.020Z,5.67
2019-05-16T18:51:50.878Z,6.33
2019-05-16T18:54:18.503Z,5.73
2019-05-16T18:56:47.324Z,5.90
2019-05-16T18:59:16.847Z,6.60
2019-05-16T19:01:46.791Z,6.00
2019-05-16T19:04:13.993Z,5.90
2019-05-16T19:06:41.642Z,5.47
2019-05-16T19:09:09.317Z,6.07
2019-05-16T19:11:36.943Z,7.00
2019-05-16T19:14:04.592Z,7.33
2019-05-16T19:16:32.287Z,7.63
2019-05-16T19:19:01.827Z,7.90
2019-05-16T19:21:31.440Z,9.40
2019-05-16T19:23:59.110Z,10.97
2019-05-16T19:26:27.277Z,8.57
2019-05-16T19:28:56.996Z,10.23
2019-05-16T19:31:27.138Z,9.53
2019-05-16T19:33:56.568Z,10.90
2019-05-16T19:36:24.184Z,10.57
2019-05-16T19:38:51.834Z,11.30
2019-05-16T19:41:19.490Z,11.93
2019-05-16T19:43:47.134Z,14.27
2019-05-16T19:46:14.778Z,11.43
2019-05-16T19:48:42.431Z,11.90
2019-05-16T19:51:16.837Z,10.93
2019-05-16T19:53:46.919Z,12.63
2019-05-16T19:56:13.924Z,10.50
2019-05-16T19:58:41.608Z,10.10
2019-05-16T20:01:09.238Z,10.67
2019-05-16T20:03:36.916Z,10.17
2019-05-16T20:06:07.421Z,9.90
2019-05-16T20:08:34.044Z,10.03
2019-05-16T20:11:01.711Z,10.50
2019-05-16T20:13:29.366Z,9.30
2019-05-16T20:15:57.067Z,9.90
2019-05-16T20:18:27.147Z,10.47
2019-05-16T20:20:56.599Z,10.33
2019-05-16T20:23:23.612Z,11.20
2019-05-16T20:25:51.225Z,11.07
2019-05-16T20:28:18.878Z,12.10
2019-05-16T20:30:47.549Z,11.97
2019-05-16T20:33:17.670Z,11.97
2019-05-16T20:35:46.714Z,11.90
2019-05-16T20:38:14.239Z,13.37
2019-05-16T20:40:41.855Z,12.50
2019-05-16T20:43:09.513Z,12.67
2019-05-16T20:45:39.786Z,13.47
2019-05-16T20:48:12.322Z,13.07
2019-05-16T20:50:36.089Z,13.17
2019-05-16T20:53:03.853Z,14.43
2019-05-16T20:55:31.493Z,14.40
2019-05-16T20:57:59.165Z,14.87
2019-05-16T21:00:26.886Z,16.00
2019-05-16T21:02:54.486Z,16.40
2019-05-16T21:05:22.143Z,15.30
2019-05-16T21:07:49.840Z,15.97
2019-05-16T21:10:17.664Z,16.97
2019-05-16T21:12:46.804Z,16.23
2019-05-16T21:15:17.005Z,16.87
2019-05-16T21:17:44.163Z,16.97
2019-05-16T21:20:11.859Z,16.47
2019-05-16T21:22:39.483Z,16.30
2019-05-16T21:25:07.167Z,17.57
2019-05-16T21:27:37.476Z,17.47
2019-05-16T21:30:04.517Z,18.03
2019-05-16T21:32:32.131Z,18.60
2019-05-16T21:34:59.809Z,18.27
2019-05-16T21:37:27.456Z,17.77
2019-05-16T21:39:59.431Z,18.97
2019-05-16T21:42:26.925Z,21.00
2019-05-16T21:44:53.995Z,22.93
2019-05-16T21:47:21.602Z,21.90
2019-05-16T21:49:49.263Z,24.10
2019-05-16T21:52:16.882Z,24.03
2019-05-16T21:54:47.050Z,25.33
2019-05-16T21:57:17.447Z,24.47
2019-05-16T21:59:43.430Z,25.17
2019-05-16T22:02:11.073Z,24.87
2019-05-16T22:04:38.732Z,24.47
2019-05-16T22:07:07.212Z,26.90
2019-05-16T22:09:37.021Z,27.37
2019-05-16T22:12:06.730Z,28.00
2019-05-16T22:14:37.574Z,28.10
2019-05-16T22:17:06.442Z,28.43
2019-05-16T22:19:36.123Z,28.23
2019-05-16T22:22:07.437Z,29.00
2019-05-16T22:24:37.098Z,28.70
2019-05-16T22:27:06.702Z,28.37
2019-05-16T22:29:34.266Z,29.77
2019-05-16T22:32:01.863Z,29.60
2019-05-16T22:34:29.507Z,31.30
2019-05-16T22:36:57.378Z,31.03
2019-05-16T22:39:26.945Z,33.10
2019-05-16T22:41:54.602Z,31.37
2019-05-16T22:44:22.283Z,31.47
2019-05-16T22:46:49.923Z,31.90
2019-05-16T22:49:17.540Z,32.53
2019-05-16T22:51:45.158Z,32.93
2019-05-16T22:54:12.812Z,34.80
2019-05-16T22:56:40.475Z,32.70
2019-05-16T22:59:08.075Z,33.47
2019-05-16T23:01:37.658Z,33.10
2019-05-16T23:04:08.396Z,32.83
2019-05-16T23:06:36.349Z,33.27
2019-05-16T23:09:06.779Z,30.67
2019-05-16T23:11:36.354Z,31.33
2019-05-16T23:14:06.140Z,31.03
2019-05-16T23:16:33.332Z,34.23
2019-05-16T23:19:00.995Z,31.83
2019-05-16T23:21:28.687Z,31.30
2019-05-16T23:23:57.116Z,31.27
2019-05-16T23:26:26.727Z,31.27
2019-05-16T23:28:56.455Z,31.40
2019-05-16T23:31:23.725Z,31.40
2019-05-16T23:33:51.313Z,31.63
2019-05-16T23:36:18.996Z,31.83
2019-05-16T23:38:47.389Z,31.57
2019-05-16T23:41:17.092Z,32.47
2019-05-16T23:43:46.767Z,32.70
2019-05-16T23:46:18.225Z,31.40
2019-05-16T23:48:47.211Z,30.97
2019-05-16T23:51:16.921Z,31.57
2019-05-16T23:53:46.466Z,30.57
2019-05-16T23:56:14.014Z,30.83
2019-05-16T23:58:42.303Z,32.43
